createdAt,value
2018-05-21T00:00:44.335Z,929.85
2018-05-21T00:01:44.230Z,929.85
2018-05-21T00:02:44.362Z,929.86
2018-05-21T00:03:44.246Z,929.91
2018-05-21T00:04:44.265Z,929.92
2018-05-21T00:05:44.493Z,929.92
2018-05-21T00:06:44.283Z,929.95
2018-05-21T00:07:44.286Z,929.95
2018-05-21T00:08:44.304Z,929.98
2018-05-21T00:09:44.306Z,930.05
2018-05-21T00:10:44.445Z,930.07
2018-05-21T00:11:44.447Z,930.02
2018-05-21T00:12:44.461Z,930.08
2018-05-21T00:13:44.360Z,930.04
2018-05-21T00:14:44.357Z,930.06
2018-05-21T00:15:44.494Z,930.13
2018-05-21T00:16:44.559Z,930.09
2018-05-21T00:17:44.377Z,930.04
2018-05-21T00:18:44.398Z,930.08
2018-05-21T00:19:44.415Z,930.09
2018-05-21T00:20:44.412Z,930.08
2018-05-21T00:21:44.654Z,930.05
2018-05-21T00:22:44.438Z,930.07
2018-05-21T00:23:44.577Z,930.03
2018-05-21T00:24:44.469Z,930.06
2018-05-21T00:25:44.594Z,930.01
2018-05-21T00:26:44.580Z,929.96
2018-05-21T00:27:44.481Z,930.00
2018-05-21T00:28:44.502Z,930.02
2018-05-21T00:29:44.520Z,930.03
2018-05-21T00:30:44.530Z,930.06
2018-05-21T00:31:44.757Z,930.09
2018-05-21T00:32:44.546Z,930.08
2018-05-21T00:33:44.546Z,930.11
2018-05-21T00:34:44.555Z,930.13
2018-05-21T00:35:44.581Z,930.16
2018-05-21T00:36:44.806Z,930.16
2018-05-21T00:37:44.714Z,930.18
2018-05-21T00:38:44.723Z,930.21
2018-05-21T00:39:44.733Z,930.21
2018-05-21T00:40:44.625Z,930.29
2018-05-21T00:41:44.740Z,930.29
2018-05-21T00:42:44.649Z,930.30
2018-05-21T00:43:44.651Z,930.38
2018-05-21T00:44:44.783Z,930.40
2018-05-21T00:45:44.675Z,930.43
2018-05-21T00:46:44.776Z,930.44
2018-05-21T00:47:44.679Z,930.44
2018-05-21T00:48:44.701Z,930.45
2018-05-21T00:49:44.713Z,930.43
2018-05-21T00:50:44.845Z,930.36
2018-05-21T00:51:44.773Z,930.39
2018-05-21T00:52:44.868Z,930.37
2018-05-21T00:53:44.743Z,930.37
2018-05-21T00:54:44.772Z,930.38
2018-05-21T00:55:44.766Z,930.41
2018-05-21T00:56:44.878Z,930.45
2018-05-21T00:57:44.783Z,930.39
2018-05-21T00:58:44.921Z,930.34
2018-05-21T00:59:44.804Z,930.33
2018-05-21T01:00:44.940Z,930.38
2018-05-21T01:01:45.049Z,930.37
2018-05-21T01:02:44.958Z,930.42
2018-05-21T01:03:44.969Z,930.46
2018-05-21T01:04:44.978Z,930.52
2018-05-21T01:05:44.872Z,930.49
2018-05-21T01:06:44.979Z,930.51
2018-05-21T01:07:44.881Z,930.53
2018-05-21T01:08:45.023Z,930.52
2018-05-21T01:09:44.898Z,930.51
2018-05-21T01:10:44.908Z,930.48
2018-05-21T01:11:45.020Z,930.45
2018-05-21T01:12:44.939Z,930.45
2018-05-21T01:13:45.070Z,930.40
2018-05-21T01:14:44.959Z,930.38
2018-05-21T01:15:45.190Z,930.38
2018-05-21T01:16:44.975Z,930.44
2018-05-21T01:17:45.207Z,930.48
2018-05-21T01:18:45.116Z,930.47
2018-05-21T01:19:45.126Z,930.50
2018-05-21T01:20:45.135Z,930.47
2018-05-21T01:21:45.144Z,930.43
2018-05-21T01:22:45.131Z,930.48
2018-05-21T01:23:45.058Z,930.43
2018-05-21T01:24:45.173Z,930.43
2018-05-21T01:25:45.184Z,930.46
2018-05-21T01:26:45.073Z,930.48
2018-05-21T01:27:45.305Z,930.47
2018-05-21T01:28:45.217Z,930.49
2018-05-21T01:29:45.249Z,930.47
2018-05-21T01:30:45.235Z,930.48
2018-05-21T01:31:45.129Z,930.46
2018-05-21T01:32:45.355Z,930.44
2018-05-21T01:33:45.162Z,930.51
2018-05-21T01:34:45.161Z,930.45
2018-05-21T01:35:45.178Z,930.45
2018-05-21T01:36:45.179Z,930.47
2018-05-21T01:37:45.404Z,930.49
2018-05-21T01:38:45.191Z,930.45
2018-05-21T01:39:45.326Z,930.43
2018-05-21T01:40:45.331Z,930.44
2018-05-21T01:41:45.344Z,930.47
2018-05-21T01:42:45.451Z,930.46
2018-05-21T01:43:45.360Z,930.45
2018-05-21T01:44:45.369Z,930.48
2018-05-21T01:45:45.437Z,930.49
2018-05-21T01:46:45.395Z,930.48
2018-05-21T01:47:45.385Z,930.47
2018-05-21T01:48:45.297Z,930.55
2018-05-21T01:49:45.311Z,930.56
2018-05-21T01:50:45.297Z,930.53
2018-05-21T01:51:45.324Z,930.49
2018-05-21T01:52:45.421Z,930.52
2018-05-21T01:53:45.344Z,930.53
2018-05-21T01:54:45.468Z,930.55
2018-05-21T01:55:45.357Z,930.59
2018-05-21T01:56:45.489Z,930.63
2018-05-21T01:57:45.597Z,930.66
2018-05-21T01:58:45.398Z,930.60
2018-05-21T01:59:45.517Z,930.59
2018-05-21T02:00:45.404Z,930.55
2018-05-21T02:01:45.419Z,930.53
2018-05-21T02:02:45.529Z,930.49
2018-05-21T02:03:45.560Z,930.46
2018-05-21T02:04:45.444Z,930.47
2018-05-21T02:05:45.447Z,930.51
2018-05-21T02:06:45.585Z,930.52
2018-05-21T02:07:45.623Z,930.53
2018-05-21T02:08:45.481Z,930.53
2018-05-21T02:09:45.613Z,930.56
2018-05-21T02:10:45.519Z,930.48
2018-05-21T02:11:45.521Z,930.47
2018-05-21T02:12:45.665Z,930.46
2018-05-21T02:13:45.528Z,930.48
2018-05-21T02:14:45.662Z,930.45
2018-05-21T02:15:45.540Z,930.52
2018-05-21T02:16:45.559Z,930.52
2018-05-21T02:17:45.674Z,930.47
2018-05-21T02:18:45.574Z,930.50
2018-05-21T02:19:45.720Z,930.47
2018-05-21T02:20:45.591Z,930.49
2018-05-21T02:21:45.614Z,930.52
2018-05-21T02:22:45.667Z,930.50
2018-05-21T02:23:45.754Z,930.51
2018-05-21T02:24:45.642Z,930.49
2018-05-21T02:25:45.771Z,930.52
2018-05-21T02:26:45.776Z,930.53
2018-05-21T02:27:45.770Z,930.55
2018-05-21T02:28:45.795Z,930.51
2018-05-21T02:29:45.805Z,930.52
2018-05-21T02:30:45.701Z,930.55
2018-05-21T02:31:45.830Z,930.56
2018-05-21T02:32:45.814Z,930.53
2018-05-21T02:33:45.716Z,930.49
2018-05-21T02:34:45.743Z,930.50
2018-05-21T02:35:45.734Z,930.52
2018-05-21T02:36:45.874Z,930.53
2018-05-21T02:37:45.852Z,930.52
2018-05-21T02:38:45.766Z,930.53
2018-05-21T02:39:45.788Z,930.55
2018-05-21T02:40:45.913Z,930.53
2018-05-21T02:41:45.804Z,930.53
2018-05-21T02:42:45.931Z,930.50
2018-05-21T02:43:45.918Z,930.55
2018-05-21T02:44:45.947Z,930.53
2018-05-21T02:45:45.958Z,930.58
2018-05-21T02:46:45.967Z,930.58
2018-05-21T02:47:45.839Z,930.57
2018-05-21T02:48:45.965Z,930.60
2018-05-21T02:49:45.875Z,930.59
2018-05-21T02:50:45.875Z,930.58
2018-05-21T02:51:45.901Z,930.63
2018-05-21T02:52:46.025Z,930.61
2018-05-21T02:53:46.089Z,930.61
2018-05-21T02:54:45.937Z,930.57
2018-05-21T02:55:45.930Z,930.59
2018-05-21T02:56:45.946Z,930.58
2018-05-21T02:57:46.075Z,930.60
2018-05-21T02:58:46.096Z,930.57
2018-05-21T02:59:46.089Z,930.61
2018-05-21T03:00:46.098Z,930.59
2018-05-21T03:01:45.983Z,930.55
2018-05-21T03:02:46.118Z,930.55
2018-05-21T03:03:46.098Z,930.58
2018-05-21T03:04:46.140Z,930.57
2018-05-21T03:05:46.144Z,930.56
2018-05-21T03:06:46.161Z,930.53
2018-05-21T03:07:46.061Z,930.51
2018-05-21T03:08:46.043Z,930.50
2018-05-21T03:09:46.209Z,930.51
2018-05-21T03:10:46.073Z,930.49
2018-05-21T03:11:46.202Z,930.47
2018-05-21T03:12:46.077Z,930.47
2018-05-21T03:13:46.090Z,930.50
2018-05-21T03:14:46.330Z,930.53
2018-05-21T03:15:46.239Z,930.50
2018-05-21T03:16:46.128Z,930.50
2018-05-21T03:17:46.137Z,930.46
2018-05-21T03:18:46.138Z,930.54
2018-05-21T03:19:46.282Z,930.56
2018-05-21T03:20:46.436Z,930.55
2018-05-21T03:21:46.295Z,930.56
2018-05-21T03:22:46.200Z,930.57
2018-05-21T03:23:46.187Z,930.57
2018-05-21T03:24:46.207Z,930.55
2018-05-21T03:25:46.302Z,930.58
2018-05-21T03:26:46.234Z,930.58
2018-05-21T03:27:46.241Z,930.54
2018-05-21T03:28:46.225Z,930.60
2018-05-21T03:29:46.250Z,930.59
2018-05-21T03:30:46.531Z,930.60
2018-05-21T03:31:46.270Z,930.53
2018-05-21T03:32:46.397Z,930.53
2018-05-21T03:33:46.278Z,930.57
2018-05-21T03:34:46.417Z,930.60
2018-05-21T03:35:46.319Z,930.59
2018-05-21T03:36:46.428Z,930.59
2018-05-21T03:37:46.329Z,930.63
2018-05-21T03:38:46.455Z,930.59
2018-05-21T03:39:46.343Z,930.58
2018-05-21T03:40:46.358Z,930.57
2018-05-21T03:41:46.634Z,930.58
2018-05-21T03:42:46.364Z,930.53
2018-05-21T03:43:46.375Z,930.49
2018-05-21T03:44:46.390Z,930.46
2018-05-21T03:45:46.524Z,930.45
2018-05-21T03:46:46.635Z,930.42
2018-05-21T03:47:46.542Z,930.47
2018-05-21T03:48:46.433Z,930.45
2018-05-21T03:49:46.430Z,930.41
2018-05-21T03:50:46.572Z,930.48
2018-05-21T03:51:46.556Z,930.44
2018-05-21T03:52:46.472Z,930.39
2018-05-21T03:53:46.475Z,930.32
2018-05-21T03:54:46.477Z,930.29
2018-05-21T03:55:46.487Z,930.31
2018-05-21T03:56:46.724Z,930.35
2018-05-21T03:57:46.512Z,930.28
2018-05-21T03:58:46.649Z,930.24
2018-05-21T03:59:46.653Z,930.23
2018-05-21T04:00:46.665Z,930.19
2018-05-21T04:01:46.771Z,930.23
2018-05-21T04:02:46.561Z,930.25
2018-05-21T04:03:46.574Z,930.27
2018-05-21T04:04:46.579Z,930.26
2018-05-21T04:05:46.602Z,930.27
2018-05-21T04:06:46.868Z,930.31
2018-05-21T04:07:46.600Z,930.34
2018-05-21T04:08:46.622Z,930.36
2018-05-21T04:09:46.747Z,930.36
2018-05-21T04:10:46.644Z,930.39
2018-05-21T04:11:46.775Z,930.36
2018-05-21T04:12:46.777Z,930.41
2018-05-21T04:13:46.785Z,930.40
2018-05-21T04:14:46.685Z,930.38
2018-05-21T04:15:46.678Z,930.39
2018-05-21T04:16:46.783Z,930.35
2018-05-21T04:17:46.700Z,930.34
2018-05-21T04:18:46.881Z,930.34
2018-05-21T04:19:46.712Z,930.37
2018-05-21T04:20:46.849Z,930.33
2018-05-21T04:21:46.962Z,930.41
2018-05-21T04:22:46.867Z,930.40
2018-05-21T04:23:46.764Z,930.40
2018-05-21T04:24:46.889Z,930.32
2018-05-21T04:25:46.770Z,930.33
2018-05-21T04:26:46.945Z,930.43
2018-05-21T04:27:46.802Z,930.39
2018-05-21T04:28:46.933Z,930.44
2018-05-21T04:29:46.818Z,930.47
2018-05-21T04:30:46.943Z,930.46
2018-05-21T04:31:46.994Z,930.45
2018-05-21T04:32:46.961Z,930.42
2018-05-21T04:33:46.974Z,930.41
2018-05-21T04:34:46.857Z,930.40
2018-05-21T04:35:46.986Z,930.43
2018-05-21T04:36:47.148Z,930.42
2018-05-21T04:37:47.004Z,930.44
2018-05-21T04:38:46.895Z,930.43
2018-05-21T04:39:46.913Z,930.41
2018-05-21T04:40:46.904Z,930.41
2018-05-21T04:41:47.064Z,930.39
2018-05-21T04:42:47.050Z,930.42
2018-05-21T04:43:47.060Z,930.42
2018-05-21T04:44:46.947Z,930.44
2018-05-21T04:45:46.955Z,930.40
2018-05-21T04:46:47.086Z,930.42
2018-05-21T04:47:47.280Z,930.43
2018-05-21T04:48:46.984Z,930.41
2018-05-21T04:49:46.995Z,930.46
2018-05-21T04:50:47.124Z,930.46
2018-05-21T04:51:47.002Z,930.44
2018-05-21T04:52:47.157Z,930.45
2018-05-21T04:53:47.018Z,930.45
2018-05-21T04:54:47.037Z,930.45
2018-05-21T04:55:47.033Z,930.40
2018-05-21T04:56:47.050Z,930.41
2018-05-21T04:57:47.187Z,930.43
2018-05-21T04:58:47.296Z,930.43
2018-05-21T04:59:47.201Z,930.44
2018-05-21T05:00:47.213Z,930.46
2018-05-21T05:01:47.219Z,930.43
2018-05-21T05:02:47.108Z,930.48
2018-05-21T05:03:47.217Z,930.44
2018-05-21T05:04:47.244Z,930.48
2018-05-21T05:05:47.253Z,930.47
2018-05-21T05:06:47.157Z,930.46
2018-05-21T05:07:47.144Z,930.49
2018-05-21T05:08:47.269Z,930.46
2018-05-21T05:09:47.164Z,930.47
2018-05-21T05:10:47.178Z,930.42
2018-05-21T05:11:47.307Z,930.39
2018-05-21T05:12:47.202Z,930.37
2018-05-21T05:13:47.327Z,930.37
2018-05-21T05:14:47.342Z,930.36
2018-05-21T05:15:47.213Z,930.31
2018-05-21T05:16:47.235Z,930.26
2018-05-21T05:17:47.228Z,930.26
2018-05-21T05:18:47.242Z,930.28
2018-05-21T05:19:47.355Z,930.25
2018-05-21T05:20:47.255Z,930.24
2018-05-21T05:21:47.276Z,930.24
2018-05-21T05:22:47.280Z,930.22
2018-05-21T05:23:47.280Z,930.19
2018-05-21T05:24:47.467Z,930.19
2018-05-21T05:25:47.426Z,930.17
2018-05-21T05:26:47.434Z,930.17
2018-05-21T05:27:47.442Z,930.11
2018-05-21T05:28:47.451Z,930.11
2018-05-21T05:29:47.559Z,930.08
2018-05-21T05:30:47.339Z,930.07
2018-05-21T05:31:47.481Z,930.04
2018-05-21T05:32:47.354Z,930.03
2018-05-21T05:33:47.388Z,929.98
2018-05-21T05:34:47.603Z,929.99
2018-05-21T05:35:47.389Z,929.99
2018-05-21T05:36:47.384Z,930.04
2018-05-21T05:37:47.403Z,930.00
2018-05-21T05:38:47.537Z,930.05
2018-05-21T05:39:47.543Z,929.99
2018-05-21T05:40:47.531Z,929.99
2018-05-21T05:41:47.563Z,930.00
2018-05-21T05:42:47.572Z,929.97
2018-05-21T05:43:47.457Z,929.97
2018-05-21T05:44:47.464Z,929.94
2018-05-21T05:45:47.692Z,929.95
2018-05-21T05:46:47.490Z,929.89
2018-05-21T05:47:47.613Z,929.90
2018-05-21T05:48:47.545Z,929.92
2018-05-21T05:49:47.628Z,929.89
2018-05-21T05:50:47.737Z,929.88
2018-05-21T05:51:47.533Z,929.86
2018-05-21T05:52:47.536Z,929.89
2018-05-21T05:53:47.540Z,929.90
2018-05-21T05:54:47.669Z,929.86
2018-05-21T05:55:47.788Z,929.88
2018-05-21T05:56:47.687Z,929.81
2018-05-21T05:57:47.697Z,929.80
2018-05-21T05:58:47.702Z,929.80
2018-05-21T05:59:47.601Z,929.79
2018-05-21T06:00:47.698Z,929.84
2018-05-21T06:01:47.621Z,929.81
2018-05-21T06:02:47.736Z,929.80
2018-05-21T06:03:47.628Z,929.84
2018-05-21T06:04:47.625Z,929.85
2018-05-21T06:05:47.861Z,929.79
2018-05-21T06:06:47.647Z,929.83
2018-05-21T06:07:47.779Z,929.85
2018-05-21T06:08:47.787Z,929.86
2018-05-21T06:09:47.799Z,929.86
2018-05-21T06:10:47.905Z,929.84
2018-05-21T06:11:47.813Z,929.86
2018-05-21T06:12:47.824Z,929.87
2018-05-21T06:13:47.805Z,929.84
2018-05-21T06:14:47.839Z,929.86
2018-05-21T06:15:47.881Z,929.82
2018-05-21T06:16:47.726Z,929.82
2018-05-21T06:17:47.865Z,929.80
2018-05-21T06:18:47.745Z,929.80
2018-05-21T06:19:47.880Z,929.82
2018-05-21T06:20:47.862Z,929.78
2018-05-21T06:21:47.785Z,929.82
2018-05-21T06:22:47.912Z,929.81
2018-05-21T06:23:47.796Z,929.77
2018-05-21T06:24:47.921Z,929.82
2018-05-21T06:25:48.116Z,929.79
2018-05-21T06:26:47.818Z,929.78
2018-05-21T06:27:47.829Z,929.83
2018-05-21T06:28:47.958Z,929.84
2018-05-21T06:29:47.852Z,929.87
2018-05-21T06:30:47.951Z,929.84
2018-05-21T06:31:47.984Z,929.84
2018-05-21T06:32:47.866Z,929.81
2018-05-21T06:33:47.926Z,929.82
2018-05-21T06:34:48.004Z,929.80
2018-05-21T06:35:47.892Z,929.81
2018-05-21T06:36:48.006Z,929.84
2018-05-21T06:37:48.032Z,929.80
2018-05-21T06:38:47.918Z,929.79
2018-05-21T06:39:48.048Z,929.82
2018-05-21T06:40:48.056Z,929.86
2018-05-21T06:41:48.048Z,929.86
2018-05-21T06:42:47.946Z,929.84
2018-05-21T06:43:47.955Z,929.85
2018-05-21T06:44:47.967Z,929.87
2018-05-21T06:45:47.970Z,929.87
2018-05-21T06:46:48.091Z,929.88
2018-05-21T06:47:48.185Z,929.92
2018-05-21T06:48:48.123Z,929.96
2018-05-21T06:49:48.019Z,929.94
2018-05-21T06:50:48.161Z,929.94
2018-05-21T06:51:48.120Z,929.87
2018-05-21T06:52:48.154Z,929.88
2018-05-21T06:53:48.163Z,929.89
2018-05-21T06:54:48.170Z,929.89
2018-05-21T06:55:48.179Z,929.92
2018-05-21T06:56:48.061Z,929.89
2018-05-21T06:57:48.177Z,929.90
2018-05-21T06:58:48.210Z,929.90
2018-05-21T06:59:48.204Z,929.92
2018-05-21T07:00:48.109Z,929.99
2018-05-21T07:01:48.228Z,929.96
2018-05-21T07:02:48.224Z,929.92
2018-05-21T07:03:48.128Z,929.95
2018-05-21T07:04:48.254Z,929.89
2018-05-21T07:05:48.143Z,929.91
2018-05-21T07:06:48.271Z,929.85
2018-05-21T07:07:48.379Z,929.84
2018-05-21T07:08:48.160Z,929.82
2018-05-21T07:09:48.298Z,929.78
2018-05-21T07:10:48.184Z,929.81
2018-05-21T07:11:48.185Z,929.82
2018-05-21T07:12:48.317Z,929.83
2018-05-21T07:13:48.253Z,929.80
2018-05-21T07:14:48.205Z,929.85
2018-05-21T07:15:48.215Z,929.78
2018-05-21T07:16:48.249Z,929.83
2018-05-21T07:17:48.235Z,929.84
2018-05-21T07:18:48.467Z,929.83
2018-05-21T07:19:48.248Z,929.81
2018-05-21T07:20:48.269Z,929.81
2018-05-21T07:21:48.262Z,929.83
2018-05-21T07:22:48.402Z,929.84
2018-05-21T07:23:48.394Z,929.83
2018-05-21T07:24:48.295Z,929.82
2018-05-21T07:25:48.305Z,929.83
2018-05-21T07:26:48.318Z,929.79
2018-05-21T07:27:48.442Z,929.81
2018-05-21T07:28:48.447Z,929.82
2018-05-21T07:29:48.435Z,929.82
2018-05-21T07:30:48.335Z,929.84
2018-05-21T07:31:48.356Z,929.81
2018-05-21T07:32:48.351Z,929.86
2018-05-21T07:33:48.487Z,929.86
2018-05-21T07:34:48.602Z,929.88
2018-05-21T07:35:48.377Z,929.91
2018-05-21T07:36:48.381Z,929.88
2018-05-21T07:37:48.405Z,929.80
2018-05-21T07:38:48.481Z,929.81
2018-05-21T07:39:48.517Z,929.78
2018-05-21T07:40:48.424Z,929.80
2018-05-21T07:41:48.438Z,929.83
2018-05-21T07:42:48.565Z,929.82
2018-05-21T07:43:48.449Z,929.79
2018-05-21T07:44:48.601Z,929.76
2018-05-21T07:45:48.584Z,929.71
2018-05-21T07:46:48.590Z,929.69
2018-05-21T07:47:48.485Z,929.69
2018-05-21T07:48:48.477Z,929.71
2018-05-21T07:49:48.715Z,929.71
2018-05-21T07:50:48.496Z,929.74
2018-05-21T07:51:48.512Z,929.78
2018-05-21T07:52:48.640Z,929.76
2018-05-21T07:53:48.527Z,929.80
2018-05-21T07:54:48.528Z,929.80
2018-05-21T07:55:48.634Z,929.81
2018-05-21T07:56:48.669Z,929.76
2018-05-21T07:57:48.566Z,929.75
2018-05-21T07:58:48.689Z,929.74
2018-05-21T07:59:48.693Z,929.80
2018-05-21T08:00:48.670Z,929.84
2018-05-21T08:01:48.595Z,929.87
2018-05-21T08:02:48.599Z,929.86
2018-05-21T08:03:48.598Z,929.89
2018-05-21T08:04:48.614Z,929.90
2018-05-21T08:05:48.715Z,929.92
2018-05-21T08:06:48.753Z,929.92
2018-05-21T08:07:48.756Z,929.96
2018-05-21T08:08:48.764Z,929.93
2018-05-21T08:09:48.647Z,929.95
2018-05-21T08:10:48.753Z,930.00
2018-05-21T08:11:48.787Z,930.04
2018-05-21T08:12:48.672Z,930.03
2018-05-21T08:13:48.675Z,930.01
2018-05-21T08:14:48.785Z,930.00
2018-05-21T08:15:48.788Z,929.97
2018-05-21T08:16:48.712Z,929.98
2018-05-21T08:17:48.712Z,930.03
2018-05-21T08:18:48.845Z,930.04
2018-05-21T08:19:48.731Z,930.12
2018-05-21T08:20:48.959Z,930.15
2018-05-21T08:21:48.867Z,930.11
2018-05-21T08:22:48.875Z,930.17
2018-05-21T08:23:48.880Z,930.09
2018-05-21T08:24:48.786Z,930.11
2018-05-21T08:25:49.368Z,930.04
2018-05-21T08:28:48.920Z,930.02
2018-05-21T08:29:48.926Z,930.07
2018-05-21T08:30:49.036Z,930.08
2018-05-21T08:31:48.824Z,930.10
2018-05-21T08:32:48.829Z,930.14
2018-05-21T08:33:48.959Z,930.13
2018-05-21T08:34:48.835Z,930.19
2018-05-21T08:35:48.947Z,930.19
2018-05-21T08:36:48.869Z,930.22
2018-05-21T08:37:48.871Z,930.20
2018-05-21T08:38:48.881Z,930.18
2018-05-21T08:39:48.875Z,930.18
2018-05-21T08:40:48.982Z,930.19
2018-05-21T08:41:48.897Z,930.19
2018-05-21T08:42:49.001Z,930.24
2018-05-21T08:43:49.035Z,930.26
2018-05-21T08:44:49.043Z,930.29
2018-05-21T08:45:49.030Z,930.31
2018-05-21T08:46:48.938Z,930.36
2018-05-21T08:47:48.940Z,930.34
2018-05-21T08:48:49.088Z,930.37
2018-05-21T08:49:49.082Z,930.37
2018-05-21T08:50:48.962Z,930.36
2018-05-21T08:51:49.087Z,930.30
2018-05-21T08:52:48.988Z,930.28
2018-05-21T08:53:48.995Z,930.31
2018-05-21T08:54:49.005Z,930.34
2018-05-21T08:55:49.002Z,930.35
2018-05-21T08:56:49.282Z,930.42
2018-05-21T08:57:49.011Z,930.44
2018-05-21T08:58:49.100Z,930.49
2018-05-21T08:59:49.027Z,930.50
2018-05-21T09:00:49.164Z,930.51
2018-05-21T09:01:49.042Z,930.50
2018-05-21T09:02:49.162Z,930.49
2018-05-21T09:03:49.063Z,930.51
2018-05-21T09:04:49.248Z,930.50
2018-05-21T09:05:49.071Z,930.50
2018-05-21T09:06:49.206Z,930.55
2018-05-21T09:07:49.081Z,930.58
2018-05-21T09:08:49.193Z,930.54
2018-05-21T09:09:49.231Z,930.58
2018-05-21T09:10:49.102Z,930.61
2018-05-21T09:11:49.131Z,930.62
2018-05-21T09:12:49.130Z,930.62
2018-05-21T09:13:49.421Z,930.61
2018-05-21T09:14:49.274Z,930.65
2018-05-21T09:15:49.146Z,930.66
2018-05-21T09:16:49.280Z,930.65
2018-05-21T09:17:49.171Z,930.66
2018-05-21T09:18:49.169Z,930.67
2018-05-21T09:19:49.407Z,930.63
2018-05-21T09:20:49.312Z,930.65
2018-05-21T09:21:49.205Z,930.71
2018-05-21T09:22:49.207Z,930.72
2018-05-21T09:23:49.211Z,930.76
2018-05-21T09:24:49.491Z,930.80
2018-05-21T09:25:49.228Z,930.81
2018-05-21T09:26:49.236Z,930.84
2018-05-21T09:27:49.238Z,930.86
2018-05-21T09:28:49.249Z,930.88
2018-05-21T09:29:49.358Z,930.84
2018-05-21T09:30:49.384Z,930.80
2018-05-21T09:31:49.394Z,930.81
2018-05-21T09:32:49.401Z,930.79
2018-05-21T09:33:49.285Z,930.84
2018-05-21T09:34:49.515Z,930.86
2018-05-21T09:35:49.294Z,930.93
2018-05-21T09:36:49.310Z,930.97
2018-05-21T09:37:49.323Z,931.02
2018-05-21T09:38:49.325Z,931.07
2018-05-21T09:39:49.602Z,931.07
2018-05-21T09:40:49.459Z,931.14
2018-05-21T09:41:49.338Z,931.19
2018-05-21T09:42:49.355Z,931.20
2018-05-21T09:43:49.359Z,931.16
2018-05-21T09:44:49.454Z,931.21
2018-05-21T09:45:49.360Z,931.22
2018-05-21T09:46:49.393Z,931.16
2018-05-21T09:47:49.383Z,931.18
2018-05-21T09:48:49.469Z,931.20
2018-05-21T09:49:49.625Z,931.17
2018-05-21T09:50:49.406Z,931.22
2018-05-21T09:51:49.418Z,931.14
2018-05-21T09:52:49.433Z,931.15
2018-05-21T09:53:49.558Z,931.19
2018-05-21T09:54:49.598Z,931.22
2018-05-21T09:55:49.448Z,931.22
2018-05-21T09:56:49.453Z,931.25
2018-05-21T09:57:49.452Z,931.29
2018-05-21T09:58:49.594Z,931.26
2018-05-21T09:59:49.635Z,931.30
2018-05-21T10:00:49.499Z,931.29
2018-05-21T10:01:49.620Z,931.27
2018-05-21T10:02:49.499Z,931.30
2018-05-21T10:03:49.508Z,931.29
2018-05-21T10:04:49.741Z,931.30
2018-05-21T10:05:49.530Z,931.31
2018-05-21T10:06:49.537Z,931.35
2018-05-21T10:07:49.669Z,931.36
2018-05-21T10:08:49.555Z,931.39
2018-05-21T10:09:49.707Z,931.40
2018-05-21T10:10:49.563Z,931.42
2018-05-21T10:11:49.575Z,931.47
2018-05-21T10:12:49.708Z,931.42
2018-05-21T10:13:49.590Z,931.37
2018-05-21T10:14:49.766Z,931.37
2018-05-21T10:15:49.741Z,931.39
2018-05-21T10:16:49.639Z,931.36
2018-05-21T10:17:49.646Z,931.42
2018-05-21T10:18:49.776Z,931.37
2018-05-21T10:19:49.882Z,931.43
2018-05-21T10:20:49.670Z,931.43
2018-05-21T10:21:49.679Z,931.44
2018-05-21T10:22:49.815Z,931.43
2018-05-21T10:23:49.824Z,931.41
2018-05-21T10:24:49.810Z,931.45
2018-05-21T10:25:49.728Z,931.46
2018-05-21T10:26:49.740Z,931.44
2018-05-21T10:27:49.754Z,931.43
2018-05-21T10:28:49.749Z,931.40
2018-05-21T10:29:49.864Z,931.40
2018-05-21T10:30:49.908Z,931.43
2018-05-21T10:31:49.794Z,931.43
2018-05-21T10:32:49.814Z,931.48
2018-05-21T10:33:49.949Z,931.49
2018-05-21T10:34:49.836Z,931.55
2018-05-21T10:35:49.968Z,931.54
2018-05-21T10:36:49.863Z,931.54
2018-05-21T10:37:49.910Z,931.61
2018-05-21T10:38:50.012Z,931.61
2018-05-21T10:39:49.916Z,931.57
2018-05-21T10:40:49.916Z,931.62
2018-05-21T10:41:50.042Z,931.61
2018-05-21T10:42:49.942Z,931.58
2018-05-21T10:43:50.030Z,931.62
2018-05-21T10:44:49.973Z,931.60
2018-05-21T10:45:49.993Z,931.59
2018-05-21T10:46:50.227Z,931.62
2018-05-21T10:47:50.030Z,931.61
2018-05-21T10:48:50.030Z,931.63
2018-05-21T10:49:50.054Z,931.63
2018-05-21T10:50:50.189Z,931.65
2018-05-21T10:51:50.082Z,931.67
2018-05-21T10:52:50.204Z,931.68
2018-05-21T10:53:50.122Z,931.74
2018-05-21T10:54:50.121Z,931.81
2018-05-21T10:55:50.138Z,931.81
2018-05-21T10:56:50.147Z,931.82
2018-05-21T10:57:50.345Z,931.89
2018-05-21T10:58:50.195Z,931.92
2018-05-21T10:59:50.208Z,931.94
2018-05-21T11:00:50.228Z,931.99
2018-05-21T11:01:50.239Z,932.00
2018-05-21T11:02:50.532Z,932.03
2018-05-21T11:03:50.282Z,932.05
2018-05-21T11:04:50.415Z,932.02
2018-05-21T11:05:50.316Z,932.05
2018-05-21T11:06:50.330Z,932.05
2018-05-21T11:07:50.494Z,932.05
2018-05-21T11:08:50.350Z,932.06
2018-05-21T11:09:50.501Z,932.04
2018-05-21T11:10:50.458Z,932.06
2018-05-21T11:11:50.413Z,932.08
2018-05-21T11:12:50.571Z,932.12
2018-05-21T11:13:50.452Z,932.11
2018-05-21T11:14:50.457Z,932.11
2018-05-21T11:15:50.600Z,932.12
2018-05-21T11:16:50.505Z,932.10
2018-05-21T11:17:50.800Z,932.11
2018-05-21T11:18:50.541Z,932.13
2018-05-21T11:20:50.562Z,932.12
2018-05-21T11:21:50.704Z,932.10
2018-05-21T11:22:50.749Z,932.07
2018-05-21T11:23:50.746Z,932.06
2018-05-21T11:24:50.764Z,932.02
2018-05-21T11:25:50.654Z,932.01
2018-05-21T11:26:50.801Z,932.04
2018-05-21T11:27:50.964Z,932.07
2018-05-21T11:28:50.834Z,932.07
2018-05-21T11:29:50.728Z,932.08
2018-05-21T11:30:50.754Z,932.11
2018-05-21T11:31:50.938Z,932.03
2018-05-21T11:32:51.060Z,932.07
2018-05-21T11:33:50.803Z,932.06
2018-05-21T11:34:50.946Z,932.06
2018-05-21T11:35:50.838Z,932.05
2018-05-21T11:36:50.864Z,932.07
2018-05-21T11:37:51.006Z,932.12
2018-05-21T11:38:51.174Z,932.14
2018-05-21T11:39:51.040Z,932.20
2018-05-21T11:40:50.930Z,932.20
2018-05-21T11:41:51.078Z,932.21
2018-05-21T11:42:50.989Z,932.28
2018-05-21T11:43:51.012Z,932.33
2018-05-21T11:44:51.255Z,932.36
2018-05-21T11:45:51.039Z,932.38
2018-05-21T11:46:51.047Z,932.45
2018-05-21T11:47:51.074Z,932.46
2018-05-21T11:48:51.095Z,932.42
2018-05-21T11:49:51.379Z,932.46
2018-05-21T11:50:51.252Z,932.51
2018-05-21T11:51:51.269Z,932.52
2018-05-21T11:52:51.288Z,932.53
2018-05-21T11:53:51.306Z,932.56
2018-05-21T11:54:51.487Z,932.60
2018-05-21T11:55:51.350Z,932.65
2018-05-21T11:56:51.242Z,932.74
2018-05-21T11:57:51.383Z,932.76
2018-05-21T11:58:51.408Z,932.77
2018-05-21T11:59:51.620Z,932.69
2018-05-21T12:00:51.449Z,932.71
2018-05-21T12:01:51.335Z,932.72
2018-05-21T12:02:51.474Z,932.75
2018-05-21T12:03:51.378Z,932.79
2018-05-21T12:04:51.668Z,932.81
2018-05-21T12:05:51.532Z,932.81
2018-05-21T12:06:51.552Z,932.83
2018-05-21T12:07:51.567Z,932.86
2018-05-21T12:08:51.590Z,932.89
2018-05-21T12:09:51.752Z,932.90
2018-05-21T12:10:51.623Z,932.90
2018-05-21T12:11:51.519Z,932.88
2018-05-21T12:12:51.537Z,932.90
2018-05-21T12:13:51.545Z,932.87
2018-05-21T12:14:51.792Z,932.91
2018-05-21T12:15:51.712Z,932.88
2018-05-21T12:16:51.599Z,932.92
2018-05-21T12:17:51.739Z,932.90
2018-05-21T12:18:51.755Z,932.88
2018-05-21T12:19:51.937Z,932.93
2018-05-21T12:20:51.665Z,932.93
2018-05-21T12:21:51.815Z,932.91
2018-05-21T12:22:51.821Z,932.91
2018-05-21T12:23:51.844Z,932.94
2018-05-21T12:24:52.053Z,932.94
2018-05-21T12:25:51.875Z,932.95
2018-05-21T12:26:51.893Z,932.96
2018-05-21T12:27:51.910Z,932.96
2018-05-21T12:28:51.813Z,932.92
2018-05-21T12:29:52.032Z,932.90
2018-05-21T12:30:51.836Z,932.86
2018-05-21T12:31:51.830Z,932.89